Terminal Aerodrome Forecast
Issued by NWS King Salmon, AK

Home | Current Version | Previous Version | Text Only | Print | Product List | Glossary On
Versions: 1 2 3 4 5 6 7 8 9 10 11 12 13 14 15 16 17
000
FTAK31 PANC 260108 AAA
TAFAKN
TAF AMD
PAKN 260108Z 2601/2624 19007KT P6SM SCT006 BKN120
     FM260700 20011KT 3SM -SNRA BR OVC004
     FM261200 22009KT 2SM -SN BR OVC003
     FM262100 23011KT 3SM -SN BR SCT003 OVC008=

USA.gov is the U.S. government's official web portal to all federal, state and local government web resources and services.